Terminal Aerodrome Forecast
Issued by NWS Upton, NY

Home | Current Version | Previous Version | Text Only | Print | Product List | Glossary On
Versions: 1 2 3 4 5 6 7 8 9 10 11 12 13 14 15 16 17 18 19 20 21 22 23
374
FTUS41 KOKX 232028 AAA
TAFISP
TAF AMD
KISP 232028Z 2320/2418 18008KT P6SM SCT200 BKN250
     FM240000 19005KT P6SM BKN250
     FM240400 VRB03KT P6SM BKN200
     FM241500 10007KT P6SM BKN150=

USA.gov is the U.S. government's official web portal to all federal, state and local government web resources and services.